createdAt,value
2018-11-02T00:01:00.829Z,8.05
2018-11-02T00:03:31.061Z,8.13
2018-11-02T00:06:01.502Z,8.12
2018-11-02T00:08:32.054Z,8.17
2018-11-02T00:11:02.458Z,8.26
2018-11-02T00:13:33.021Z,8.20
2018-11-02T00:16:03.376Z,8.20
2018-11-02T00:18:33.850Z,8.20
2018-11-02T00:21:04.464Z,8.14
2018-11-02T00:23:34.969Z,8.14
2018-11-02T00:26:05.474Z,8.03
2018-11-02T00:28:36.030Z,8.11
2018-11-02T00:31:06.738Z,7.98
2018-11-02T00:33:37.084Z,7.93
2018-11-02T00:36:07.668Z,7.93
2018-11-02T00:38:38.544Z,7.89
2018-11-02T00:41:34.730Z,7.92
2018-11-02T00:44:05.068Z,7.93
2018-11-02T00:46:35.503Z,7.92
2018-11-02T00:49:06.520Z,7.90
2018-11-02T00:51:37.636Z,8.05
2018-11-02T00:54:08.661Z,7.96
2018-11-02T00:56:39.303Z,7.94
2018-11-02T00:59:09.744Z,7.95
2018-11-02T01:01:40.130Z,8.03
2018-11-02T01:04:10.508Z,8.01
2018-11-02T01:06:40.964Z,8.00
2018-11-02T01:09:12.206Z,7.95
2018-11-02T01:11:42.446Z,8.03
2018-11-02T01:14:12.915Z,8.02
2018-11-02T01:16:43.438Z,8.17
2018-11-02T01:19:13.828Z,8.11
2018-11-02T01:21:44.604Z,8.13
2018-11-02T01:24:14.968Z,8.09
2018-11-02T01:26:45.221Z,8.03
2018-11-02T01:29:15.601Z,8.08
2018-11-02T01:31:45.917Z,8.06
2018-11-02T01:34:16.408Z,8.14
2018-11-02T01:36:46.755Z,8.16
2018-11-02T01:39:17.040Z,8.11
2018-11-02T01:41:47.434Z,8.22
2018-11-02T01:44:18.014Z,8.21
2018-11-02T01:46:48.396Z,8.27
2018-11-02T01:49:19.696Z,8.40
2018-11-02T01:51:50.035Z,8.40
2018-11-02T01:54:20.453Z,8.27
2018-11-02T01:56:52.045Z,8.36
2018-11-02T01:59:22.435Z,8.38
2018-11-02T02:01:52.671Z,8.30
2018-11-02T02:04:23.137Z,8.31
2018-11-02T02:06:54.193Z,8.24
2018-11-02T02:09:24.648Z,8.12
2018-11-02T02:11:55.022Z,8.12
2018-11-02T02:14:25.324Z,8.13
2018-11-02T02:16:55.695Z,8.02
2018-11-02T02:19:26.207Z,7.94
2018-11-02T02:21:56.704Z,7.91
2018-11-02T02:24:27.131Z,7.88
2018-11-02T02:26:57.485Z,7.91
2018-11-02T02:29:28.000Z,7.90
2018-11-02T02:31:58.492Z,7.76
2018-11-02T02:34:29.019Z,7.83
2018-11-02T02:36:59.456Z,7.86
2018-11-02T02:39:29.792Z,7.87
2018-11-02T02:42:00.214Z,7.86
2018-11-02T02:44:30.591Z,7.89
2018-11-02T02:47:00.876Z,7.65
2018-11-02T02:49:31.407Z,7.57
2018-11-02T02:52:01.816Z,7.34
2018-11-02T02:54:32.263Z,7.40
2018-11-02T02:57:02.625Z,7.28
2018-11-02T02:59:32.941Z,7.10
2018-11-02T03:02:03.325Z,6.89
2018-11-02T03:04:33.935Z,6.85
2018-11-02T03:07:04.432Z,6.83
2018-11-02T03:09:34.699Z,6.77
2018-11-02T03:12:14.822Z,6.75
2018-11-02T03:14:45.429Z,6.74
2018-11-02T03:17:16.582Z,6.79
2018-11-02T03:19:46.949Z,6.77
2018-11-02T03:22:17.453Z,6.68
2018-11-02T03:24:47.933Z,6.82
2018-11-02T03:27:18.525Z,6.93
2018-11-02T03:29:48.963Z,6.98
2018-11-02T03:32:19.377Z,7.02
2018-11-02T03:34:49.620Z,7.30
2018-11-02T03:37:19.997Z,7.36
2018-11-02T03:39:50.571Z,7.39
2018-11-02T03:42:21.020Z,7.54
2018-11-02T03:44:51.597Z,7.77
2018-11-02T03:47:22.161Z,7.83
2018-11-02T03:49:52.643Z,7.88
2018-11-02T03:52:23.239Z,7.96
2018-11-02T03:54:54.094Z,8.12
2018-11-02T03:57:25.169Z,8.13
2018-11-02T03:59:55.697Z,8.24
2018-11-02T04:02:26.276Z,8.24
2018-11-02T04:04:56.528Z,8.23
2018-11-02T04:07:27.047Z,8.27
2018-11-02T04:09:57.385Z,8.26
2018-11-02T04:12:27.783Z,8.29
2018-11-02T04:14:58.272Z,8.30
2018-11-02T04:17:28.669Z,8.42
2018-11-02T04:19:59.288Z,8.45
2018-11-02T04:22:29.748Z,8.52
2018-11-02T04:25:00.110Z,8.58
2018-11-02T04:27:30.489Z,8.55
2018-11-02T04:30:00.944Z,8.51
2018-11-02T04:32:31.450Z,8.52
2018-11-02T04:35:01.935Z,8.47
2018-11-02T04:37:32.319Z,8.39
2018-11-02T04:40:02.690Z,8.36
2018-11-02T04:42:33.058Z,8.35
2018-11-02T04:45:03.553Z,8.27
2018-11-02T04:47:34.412Z,8.09
2018-11-02T04:50:05.267Z,8.11
2018-11-02T04:52:36.688Z,8.20
2018-11-02T04:55:07.945Z,8.06
2018-11-02T04:57:38.499Z,7.97
2018-11-02T05:00:10.724Z,7.85
2018-11-02T05:02:41.136Z,7.82
2018-11-02T05:05:11.443Z,7.87
2018-11-02T05:07:41.863Z,7.82
2018-11-02T05:10:12.412Z,7.78
2018-11-02T05:12:42.860Z,7.75
2018-11-02T05:15:13.226Z,7.74
2018-11-02T05:17:43.553Z,7.83
2018-11-02T05:20:13.960Z,7.83
2018-11-02T05:22:44.512Z,7.84
2018-11-02T05:25:15.029Z,7.87
2018-11-02T05:27:45.644Z,7.89
2018-11-02T05:30:16.107Z,8.01
2018-11-02T05:32:46.380Z,8.00
2018-11-02T05:35:16.854Z,8.07
2018-11-02T05:37:47.251Z,8.11
2018-11-02T05:40:17.752Z,8.20
2018-11-02T05:42:48.211Z,8.28
2018-11-02T05:45:19.783Z,8.34
2018-11-02T05:47:50.284Z,8.41
2018-11-02T05:50:20.795Z,8.48
2018-11-02T05:52:51.170Z,8.63
2018-11-02T05:55:21.767Z,8.70
2018-11-02T05:57:51.994Z,8.76
2018-11-02T06:00:22.548Z,8.71
2018-11-02T06:02:53.179Z,8.84
2018-11-02T06:05:24.034Z,8.86
2018-11-02T06:07:54.555Z,8.91
2018-11-02T06:10:24.703Z,8.98
2018-11-02T06:12:55.119Z,9.02
2018-11-02T06:15:25.506Z,9.06
2018-11-02T06:17:56.136Z,9.15
2018-11-02T06:20:26.655Z,9.32
2018-11-02T06:22:57.132Z,9.25
2018-11-02T06:25:27.601Z,9.28
2018-11-02T06:27:58.111Z,9.35
2018-11-02T06:30:29.247Z,9.39
2018-11-02T06:32:59.697Z,9.40
2018-11-02T06:35:30.356Z,9.48
2018-11-02T06:38:01.234Z,9.55
2018-11-02T06:40:32.429Z,9.56
2018-11-02T06:43:02.893Z,9.59
2018-11-02T06:45:33.434Z,9.60
2018-11-02T06:48:03.907Z,9.88
2018-11-02T06:50:34.377Z,9.80
2018-11-02T06:53:05.179Z,9.87
2018-11-02T06:55:35.766Z,9.97
2018-11-02T06:58:06.305Z,10.02
2018-11-02T07:00:36.906Z,11.19
2018-11-02T07:03:07.219Z,12.36
2018-11-02T07:05:37.687Z,13.23
2018-11-02T07:08:08.558Z,13.90
2018-11-02T07:10:38.881Z,14.52
2018-11-02T07:13:09.354Z,14.81
2018-11-02T07:15:39.698Z,15.32
2018-11-02T07:18:09.984Z,15.64
2018-11-02T07:20:40.285Z,15.56
2018-11-02T07:23:10.461Z,16.06
2018-11-02T07:25:40.815Z,16.30
2018-11-02T07:28:11.511Z,16.12
2018-11-02T07:30:41.911Z,16.56
2018-11-02T07:33:12.518Z,16.65
2018-11-02T07:35:42.833Z,17.00
2018-11-02T07:38:13.149Z,16.96
2018-11-02T07:40:43.522Z,17.11
2018-11-02T07:43:13.909Z,17.35
2018-11-02T07:45:44.227Z,16.70
2018-11-02T07:48:14.741Z,17.20
2018-11-02T07:50:45.255Z,16.97
2018-11-02T07:53:16.523Z,17.19
2018-11-02T07:55:47.283Z,17.31
2018-11-02T07:58:17.787Z,17.12
2018-11-02T08:00:48.404Z,16.42
2018-11-02T08:03:18.997Z,15.87
2018-11-02T08:05:49.254Z,14.29
2018-11-02T08:08:19.630Z,13.47
2018-11-02T08:10:50.207Z,12.86
2018-11-02T08:13:20.700Z,12.45
2018-11-02T08:15:51.283Z,12.06
2018-11-02T08:18:21.868Z,11.80
2018-11-02T08:20:52.152Z,12.00
2018-11-02T08:23:22.543Z,12.58
2018-11-02T08:25:53.000Z,13.98
2018-11-02T08:28:23.608Z,15.14
2018-11-02T08:30:54.269Z,15.64
2018-11-02T08:33:24.770Z,16.38
2018-11-02T08:35:55.064Z,16.62
2018-11-02T08:38:25.484Z,15.58
2018-11-02T08:40:55.989Z,14.31
2018-11-02T08:43:26.392Z,13.78
2018-11-02T08:45:56.879Z,13.19
2018-11-02T08:48:27.360Z,12.89
2018-11-02T08:50:57.880Z,12.69
2018-11-02T08:53:28.108Z,12.33
2018-11-02T08:55:58.616Z,12.30
2018-11-02T08:58:29.204Z,12.18
2018-11-02T09:00:59.776Z,12.19
2018-11-02T09:03:30.244Z,12.06
2018-11-02T09:06:00.699Z,11.90
2018-11-02T09:08:31.100Z,11.76
2018-11-02T09:11:01.689Z,11.76
2018-11-02T09:13:32.044Z,11.57
2018-11-02T09:16:02.547Z,11.55
2018-11-02T09:18:33.217Z,11.46
2018-11-02T09:21:03.485Z,11.51
2018-11-02T09:23:34.000Z,11.26
2018-11-02T09:26:04.513Z,11.09
2018-11-02T09:28:35.092Z,11.12
2018-11-02T09:31:05.857Z,11.01
2018-11-02T09:33:36.336Z,10.87
2018-11-02T09:36:07.149Z,10.97
2018-11-02T09:38:37.604Z,10.92
2018-11-02T09:41:17.685Z,10.82
2018-11-02T09:43:48.211Z,10.75
2018-11-02T09:46:18.640Z,10.74
2018-11-02T09:48:49.140Z,10.83
2018-11-02T09:51:19.673Z,10.89
2018-11-02T09:53:50.119Z,11.08
2018-11-02T09:56:20.713Z,11.04
2018-11-02T09:58:51.291Z,11.16
2018-11-02T10:01:21.644Z,11.24
2018-11-02T10:03:52.019Z,11.31
2018-11-02T10:06:22.643Z,11.26
2018-11-02T10:08:53.212Z,11.24
2018-11-02T10:11:24.049Z,11.19
2018-11-02T10:13:54.668Z,11.27
2018-11-02T10:16:25.486Z,11.14
2018-11-02T10:18:56.116Z,11.15
2018-11-02T10:21:26.953Z,11.11
2018-11-02T10:23:57.643Z,11.09
2018-11-02T10:26:28.251Z,11.05
2018-11-02T10:28:58.924Z,10.97
2018-11-02T10:31:29.496Z,10.97
2018-11-02T10:34:00.028Z,10.82
2018-11-02T10:36:31.085Z,10.89
2018-11-02T10:39:02.181Z,10.75
2018-11-02T10:41:36.551Z,10.63
2018-11-02T10:44:07.180Z,10.61
2018-11-02T10:46:38.020Z,10.44
2018-11-02T10:49:14.648Z,10.56
2018-11-02T10:51:45.446Z,10.50
2018-11-02T10:54:16.043Z,10.55
2018-11-02T10:56:46.913Z,10.53
2018-11-02T10:59:17.964Z,10.50
2018-11-02T11:02:55.379Z,10.57
2018-11-02T11:05:28.602Z,10.79
2018-11-02T11:08:05.863Z,10.75
2018-11-02T11:10:37.803Z,10.90
2018-11-02T11:13:12.711Z,11.08
2018-11-02T11:15:47.789Z,11.23
2018-11-02T11:18:22.161Z,11.24
2018-11-02T11:20:56.310Z,11.27
2018-11-02T11:23:28.817Z,11.39
2018-11-02T11:26:03.005Z,11.35
2018-11-02T11:28:35.536Z,11.39
2018-11-02T11:31:09.985Z,11.34
2018-11-02T11:33:47.024Z,11.35
2018-11-02T11:36:22.030Z,11.39
2018-11-02T11:38:59.443Z,11.50
2018-11-02T11:41:33.256Z,11.60
2018-11-02T11:44:06.587Z,11.84
2018-11-02T11:46:37.308Z,12.03
2018-11-02T11:49:09.156Z,12.06
2018-11-02T11:51:39.756Z,12.28
2018-11-02T11:54:10.105Z,12.25
2018-11-02T11:56:40.596Z,12.34
2018-11-02T11:59:11.109Z,12.35
2018-11-02T12:01:41.574Z,12.31
2018-11-02T12:04:12.178Z,12.26
2018-11-02T12:06:42.555Z,12.36
2018-11-02T12:09:13.239Z,12.37
2018-11-02T12:11:43.953Z,12.45
2018-11-02T12:14:14.676Z,12.44
2018-11-02T12:16:45.285Z,12.59
2018-11-02T12:19:16.236Z,12.58
2018-11-02T12:21:46.761Z,12.69
2018-11-02T12:24:17.560Z,12.56
2018-11-02T12:26:48.053Z,12.62
2018-11-02T12:29:18.282Z,12.64
2018-11-02T12:31:48.522Z,12.85
2018-11-02T12:34:19.163Z,12.80
2018-11-02T12:36:49.580Z,12.69
2018-11-02T12:39:20.175Z,12.83
2018-11-02T12:41:50.624Z,12.78
2018-11-02T12:44:21.197Z,12.67
2018-11-02T12:46:51.720Z,12.56
2018-11-02T12:49:22.427Z,12.66
2018-11-02T12:51:53.132Z,12.77
2018-11-02T12:57:26.944Z,12.75
2018-11-02T12:59:57.327Z,12.79
2018-11-02T13:02:27.835Z,12.68
2018-11-02T13:05:00.136Z,12.63
2018-11-02T13:07:30.542Z,12.43
2018-11-02T13:10:01.200Z,12.31
2018-11-02T13:12:31.624Z,12.35
2018-11-02T13:15:02.591Z,12.14
2018-11-02T13:17:33.018Z,12.05
2018-11-02T13:20:03.659Z,11.99
2018-11-02T13:22:34.338Z,12.01
2018-11-02T13:25:04.680Z,11.98
2018-11-02T13:27:35.162Z,11.96
2018-11-02T13:30:05.784Z,11.95
2018-11-02T13:32:36.484Z,11.89
2018-11-02T13:35:08.712Z,11.95
2018-11-02T13:37:39.377Z,11.90
2018-11-02T13:40:11.664Z,11.81
2018-11-02T13:42:42.365Z,11.75
2018-11-02T13:45:14.113Z,11.73
2018-11-02T13:47:44.933Z,11.91
2018-11-02T13:50:15.488Z,11.89
2018-11-02T13:52:46.138Z,11.95
2018-11-02T13:55:16.660Z,12.09
2018-11-02T13:57:47.371Z,12.22
2018-11-02T14:00:18.961Z,12.23
2018-11-02T14:02:49.408Z,12.24
2018-11-02T14:05:19.908Z,12.28
2018-11-02T14:07:50.304Z,12.18
2018-11-02T14:10:20.770Z,12.08
2018-11-02T14:12:51.199Z,11.94
2018-11-02T14:15:21.505Z,11.79
2018-11-02T14:17:51.900Z,11.63
2018-11-02T14:20:22.376Z,11.56
2018-11-02T14:22:52.695Z,11.43
2018-11-02T14:25:23.033Z,11.34
2018-11-02T14:27:53.544Z,11.26
2018-11-02T14:30:24.018Z,11.32
2018-11-02T14:32:54.425Z,11.22
2018-11-02T14:35:24.953Z,11.30
2018-11-02T14:37:55.365Z,11.27
2018-11-02T14:40:25.892Z,11.21
2018-11-02T14:42:56.553Z,11.23
2018-11-02T14:45:27.034Z,11.21
2018-11-02T14:47:57.251Z,11.21
2018-11-02T14:50:27.779Z,11.14
2018-11-02T14:52:58.216Z,11.14
2018-11-02T14:55:28.676Z,11.19
2018-11-02T14:57:59.001Z,11.10
2018-11-02T15:00:29.634Z,11.03
2018-11-02T15:03:00.232Z,10.97
2018-11-02T15:05:30.641Z,10.97
2018-11-02T15:08:01.186Z,10.96
2018-11-02T15:10:32.091Z,10.92
2018-11-02T15:13:02.630Z,10.89
2018-11-02T15:15:33.415Z,10.82
2018-11-02T15:18:03.921Z,10.90
2018-11-02T15:20:34.460Z,10.82
2018-11-02T15:23:04.873Z,10.76
2018-11-02T15:25:35.412Z,10.71
2018-11-02T15:28:06.019Z,10.66
2018-11-02T15:30:36.525Z,10.62
2018-11-02T15:33:07.314Z,10.58
2018-11-02T15:35:38.000Z,10.55
2018-11-02T15:38:08.468Z,10.47
2018-11-02T15:40:38.937Z,10.41
2018-11-02T15:43:09.249Z,10.36
2018-11-02T15:45:39.679Z,10.28
2018-11-02T15:48:10.056Z,10.22
2018-11-02T15:50:40.742Z,10.18
2018-11-02T15:53:11.455Z,10.10
2018-11-02T15:55:42.027Z,10.01
2018-11-02T15:58:12.747Z,9.96
2018-11-02T16:00:43.267Z,9.90
2018-11-02T16:03:13.768Z,9.93
2018-11-02T16:05:44.382Z,9.81
2018-11-02T16:08:14.867Z,9.74
2018-11-02T16:10:45.179Z,9.66
2018-11-02T16:13:15.602Z,9.61
2018-11-02T16:15:46.069Z,9.61
2018-11-02T16:18:16.697Z,9.60
2018-11-02T16:20:47.684Z,9.54
2018-11-02T16:23:18.076Z,9.46
2018-11-02T16:25:48.754Z,9.37
2018-11-02T16:28:19.225Z,9.30
2018-11-02T16:30:49.506Z,9.23
2018-11-02T16:33:19.859Z,9.20
2018-11-02T16:35:50.561Z,9.17
2018-11-02T16:38:21.128Z,9.12
2018-11-02T16:40:51.524Z,9.09
2018-11-02T16:43:21.934Z,9.13
2018-11-02T16:45:52.818Z,9.12
2018-11-02T16:48:23.410Z,9.10
2018-11-02T16:50:54.060Z,9.07
2018-11-02T16:53:24.685Z,9.02
2018-11-02T16:55:55.245Z,8.98
2018-11-02T16:58:25.641Z,8.91
2018-11-02T17:00:56.008Z,8.83
2018-11-02T17:03:26.468Z,8.73
2018-11-02T17:05:57.100Z,8.63
2018-11-02T17:08:27.656Z,8.52
2018-11-02T17:10:58.217Z,8.41
2018-11-02T17:13:28.853Z,8.35
2018-11-02T17:15:59.556Z,8.30
2018-11-02T17:18:30.187Z,8.29
2018-11-02T17:21:00.573Z,8.26
2018-11-02T17:23:31.159Z,8.26
2018-11-02T17:26:01.660Z,8.22
2018-11-02T17:28:32.227Z,8.18
2018-11-02T17:31:02.904Z,8.19
2018-11-02T17:33:33.385Z,8.14
2018-11-02T17:36:03.895Z,8.10
2018-11-02T17:38:34.460Z,8.03
2018-11-02T17:41:05.044Z,7.99
2018-11-02T17:43:36.637Z,7.93
2018-11-02T17:46:07.590Z,7.90
2018-11-02T17:48:38.339Z,7.84
2018-11-02T17:51:08.938Z,7.85
2018-11-02T17:53:39.501Z,7.82
2018-11-02T17:56:09.942Z,7.82
2018-11-02T17:58:40.471Z,7.78
2018-11-02T18:01:11.061Z,7.75
2018-11-02T18:03:41.540Z,7.73
2018-11-02T18:06:12.178Z,7.66
2018-11-02T18:08:42.401Z,7.62
2018-11-02T18:11:12.849Z,7.60
2018-11-02T18:13:43.327Z,7.53
2018-11-02T18:16:14.561Z,7.44
2018-11-02T18:18:44.918Z,7.33
2018-11-02T18:21:15.297Z,7.26
2018-11-02T18:23:45.898Z,7.19
2018-11-02T18:26:16.420Z,7.09
2018-11-02T18:28:46.764Z,7.00
2018-11-02T18:31:17.514Z,6.91
2018-11-02T18:33:48.010Z,6.85
2018-11-02T18:36:18.512Z,6.82
2018-11-02T18:38:48.783Z,6.74
2018-11-02T18:41:19.438Z,6.70
2018-11-02T18:43:49.952Z,6.61
2018-11-02T18:46:20.303Z,6.50
2018-11-02T18:48:50.711Z,6.37
2018-11-02T18:51:21.293Z,6.31
2018-11-02T18:53:51.852Z,6.27
2018-11-02T18:56:22.420Z,6.19
2018-11-02T18:58:52.939Z,6.12
2018-11-02T19:01:23.444Z,6.07
2018-11-02T19:03:53.911Z,6.02
2018-11-02T19:06:24.252Z,5.99
2018-11-02T19:08:54.856Z,5.96
2018-11-02T19:11:25.381Z,5.92
2018-11-02T19:13:55.946Z,5.91
2018-11-02T19:16:26.411Z,5.93
2018-11-02T19:18:56.834Z,5.89
2018-11-02T19:21:27.417Z,5.85
2018-11-02T19:23:57.761Z,5.80
2018-11-02T19:26:28.123Z,5.79
2018-11-02T19:28:58.677Z,5.80
2018-11-02T19:31:29.074Z,5.79
2018-11-02T19:33:59.515Z,5.83
2018-11-02T19:36:30.149Z,5.84
2018-11-02T19:39:00.700Z,5.88
2018-11-02T19:41:31.613Z,5.88
2018-11-02T19:44:02.121Z,5.87
2018-11-02T19:46:32.753Z,5.84
2018-11-02T19:49:03.301Z,5.82
2018-11-02T19:51:33.867Z,5.77
2018-11-02T19:54:04.512Z,5.77
2018-11-02T19:56:34.976Z,5.75
2018-11-02T19:59:05.451Z,5.73
2018-11-02T20:01:35.955Z,5.72
2018-11-02T20:04:06.339Z,5.75
2018-11-02T20:06:43.609Z,5.76
2018-11-02T20:09:14.506Z,5.79
2018-11-02T20:11:44.936Z,5.80
2018-11-02T20:14:15.371Z,5.83
2018-11-02T20:16:45.811Z,5.84
2018-11-02T20:19:16.393Z,5.85
2018-11-02T20:21:46.731Z,5.86
2018-11-02T20:24:17.649Z,5.86
2018-11-02T20:26:48.520Z,5.87
2018-11-02T20:29:26.364Z,5.85
2018-11-02T20:32:04.660Z,5.88
2018-11-02T20:34:35.079Z,5.89
2018-11-02T20:37:05.760Z,5.86
2018-11-02T20:39:36.376Z,5.83
2018-11-02T20:42:08.443Z,5.76
2018-11-02T20:44:39.470Z,5.74
2018-11-02T20:47:12.969Z,5.72
2018-11-02T20:49:45.550Z,5.69
2018-11-02T20:52:16.102Z,5.76
2018-11-02T20:54:47.361Z,5.81
2018-11-02T20:57:18.196Z,5.89
2018-11-02T20:59:48.941Z,5.94
2018-11-02T21:02:19.479Z,6.00
2018-11-02T21:04:52.225Z,6.05
2018-11-02T21:07:22.851Z,6.07
2018-11-02T21:09:53.338Z,6.15
2018-11-02T21:12:23.729Z,6.23
2018-11-02T21:14:54.426Z,6.28
2018-11-02T21:17:24.760Z,6.30
2018-11-02T21:19:55.300Z,6.31
2018-11-02T21:22:25.751Z,6.35
2018-11-02T21:24:56.705Z,6.36
2018-11-02T21:27:27.314Z,6.26
2018-11-02T21:29:58.039Z,6.22
2018-11-02T21:32:30.420Z,6.17
2018-11-02T21:35:01.648Z,6.16
2018-11-02T21:37:32.127Z,6.15
2018-11-02T21:40:02.588Z,6.19
2018-11-02T21:42:33.085Z,6.22
2018-11-02T21:45:03.677Z,6.22
2018-11-02T21:47:34.400Z,6.28
2018-11-02T21:50:04.973Z,6.31
2018-11-02T21:52:35.320Z,6.35
2018-11-02T21:55:06.159Z,6.35
2018-11-02T21:57:36.940Z,6.29
2018-11-02T22:00:10.577Z,6.30
2018-11-02T22:02:41.228Z,6.32
2018-11-02T22:05:12.956Z,6.35
2018-11-02T22:07:44.980Z,6.37
2018-11-02T22:10:16.881Z,6.38
2018-11-02T22:12:47.437Z,6.39
2018-11-02T22:15:18.031Z,6.38
2018-11-02T22:17:48.623Z,6.32
2018-11-02T22:20:19.250Z,6.30
2018-11-02T22:22:49.823Z,6.32
2018-11-02T22:25:20.189Z,6.31
2018-11-02T22:27:50.640Z,6.26
2018-11-02T22:30:21.214Z,6.29
2018-11-02T22:32:52.324Z,6.31
2018-11-02T22:35:22.800Z,6.26
2018-11-02T22:37:53.406Z,6.30
2018-11-02T22:40:24.002Z,6.35
2018-11-02T22:42:54.483Z,6.37
2018-11-02T22:45:24.868Z,6.38
2018-11-02T22:48:00.387Z,6.41
2018-11-02T22:50:30.944Z,6.37
2018-11-02T22:53:01.628Z,6.42
2018-11-02T22:55:32.104Z,6.44
2018-11-02T22:58:02.583Z,6.46
2018-11-02T23:00:33.273Z,6.49
2018-11-02T23:03:03.734Z,6.53
2018-11-02T23:05:34.326Z,6.59
2018-11-02T23:08:05.045Z,6.61
2018-11-02T23:10:35.608Z,6.60
2018-11-02T23:13:06.451Z,6.60
2018-11-02T23:15:36.894Z,6.61
2018-11-02T23:18:08.000Z,6.59
2018-11-02T23:20:38.611Z,6.56
2018-11-02T23:23:09.131Z,6.51
2018-11-02T23:25:40.408Z,6.53
2018-11-02T23:28:10.942Z,6.46
2018-11-02T23:30:41.529Z,6.48
2018-11-02T23:33:12.096Z,6.48
2018-11-02T23:35:46.543Z,6.49
2018-11-02T23:38:16.927Z,6.52
2018-11-02T23:40:47.431Z,6.54
2018-11-02T23:43:17.891Z,6.52
2018-11-02T23:45:49.026Z,6.57
2018-11-02T23:48:20.591Z,6.59
2018-11-02T23:50:51.790Z,6.60
2018-11-02T23:53:22.815Z,6.64
2018-11-02T23:55:53.079Z,6.64
2018-11-02T23:58:23.480Z,6.66
